Time;durP1;ratioP1;P1;durP2;ratioP2;P2;SDS_P1;SDS_P2;PMS_P1;PMS_P2;Temp;Humidity;BMP_temperature;BMP_pressure;BME280_temperature;BME280_humidity;BME280_pressure;Samples;Min_cycle;Max_cycle;Signal;HPM_P1;HPM_P2
2022/11/23 05:03:38;;;;;;;10.02;6.50;;;;;;;8.01;95.70;99073.53;5609005;31;82929;-55
2022/11/23 05:06:41;;;;;;;12.05;6.85;;;;;;;8.01;95.70;99073.53;5599141;31;33396;-54
2022/11/23 05:09:43;;;;;;;9.63;5.90;;;;;;;7.33;91.47;99069.63;5603737;31;34367;-55
2022/11/23 05:12:46;;;;;;;9.57;5.95;;;;;;;7.36;97.22;99057.59;5603225;31;34303;-55
2022/11/23 05:15:48;;;;;;;8.75;5.68;;;;;;;7.43;90.57;99064.13;5603306;31;33687;-55
2022/11/23 05:18:51;;;;;;;18.83;6.07;;;;;;;7.29;92.17;99068.63;5602807;31;33110;-55
2022/11/23 05:21:53;;;;;;;9.30;5.50;;;;;;;7.62;100.00;99069.44;5603632;31;34227;-55
2022/11/23 05:24:56;;;;;;;8.80;5.75;;;;;;;7.61;92.73;99057.16;5602720;31;33265;-55
2022/11/23 05:27:59;;;;;;;7.30;4.93;;;;;;;7.54;96.31;99056.75;5603266;31;33152;-55
2022/11/23 05:31:18;;;;;;;8.57;5.47;;;;;;;7.52;92.06;99049.06;5601896;31;33607;-55
2022/11/23 05:34:20;;;;;;;9.27;5.72;;;;;;;7.33;89.08;99032.28;5603302;31;33369;-55
2022/11/23 05:37:23;;;;;;;8.05;5.40;;;;;;;7.34;97.02;99043.75;5603118;31;34320;-54
2022/11/23 05:40:26;;;;;;;8.10;5.35;;;;;;;7.40;87.96;99043.38;5603087;31;33791;-55
2022/11/23 05:43:29;;;;;;;10.75;5.47;;;;;;;7.34;87.34;99039.19;5603040;31;33134;-55
2022/11/23 05:46:32;;;;;;;9.65;5.47;;;;;;;7.48;92.67;99045.38;5598860;31;33557;-54
2022/11/23 05:49:35;;;;;;;9.50;5.90;;;;;;;8.19;100.00;99051.31;5589719;31;34229;-55
2022/11/23 05:52:37;;;;;;;8.77;5.80;;;;;;;7.71;84.76;99048.19;5598991;31;34335;-55
2022/11/23 05:55:41;;;;;;;7.72;5.37;;;;;;;7.53;87.73;99047.16;5602998;31;33250;-55
2022/11/23 05:58:43;;;;;;;9.50;6.00;;;;;;;7.25;92.52;99046.28;5599752;31;33403;-56
2022/11/23 06:01:46;;;;;;;9.77;6.22;;;;;;;7.18;88.91;99045.84;5592538;31;33253;-55
2022/11/23 06:04:49;;;;;;;13.07;7.90;;;;;;;7.16;87.13;99050.69;5591590;31;34133;-55
2022/11/23 06:07:52;;;;;;;9.80;6.37;;;;;;;7.68;99.94;99064.78;5582258;32;33423;-55
2022/11/23 06:10:54;;;;;;;9.02;6.37;;;;;;;7.75;96.40;99073.22;5582994;32;34287;-55
2022/11/23 06:13:57;;;;;;;11.02;6.68;;;;;;;7.77;87.57;99079.03;5573297;32;34437;-55
2022/11/23 06:16:59;;;;;;;10.20;6.87;;;;;;;7.78;100.00;99067.28;5569824;32;33860;-55
2022/11/23 06:20:05;;;;;;;9.60;6.72;;;;;;;7.78;98.70;99067.28;5568529;31;32160;-55
2022/11/23 06:23:08;;;;;;;10.30;7.28;;;;;;;7.87;96.43;99068.19;5573917;31;33411;-55
2022/11/23 06:26:10;;;;;;;9.88;7.05;;;;;;;7.91;95.23;99069.19;5578995;31;33790;-56
2022/11/23 06:29:14;;;;;;;11.75;7.00;;;;;;;7.90;97.73;99075.59;5588435;31;33421;-55
2022/11/23 06:32:17;;;;;;;9.95;6.93;;;;;;;8.03;97.98;99075.94;5588450;31;33406;-55
2022/11/23 06:35:19;;;;;;;10.77;6.97;;;;;;;7.89;92.31;99081.25;5576321;31;34377;-55
2022/11/23 06:38:21;;;;;;;9.10;6.45;;;;;;;8.04;95.19;99086.28;5580009;31;33278;-55
2022/11/23 06:41:27;;;;;;;14.60;7.47;;;;;;;8.17;96.81;99082.84;5588864;31;33491;-54
2022/11/23 06:44:33;;;;;;;12.82;7.53;;;;;;;7.90;100.00;99080.16;5583064;31;33380;-55
2022/11/23 06:47:36;;;;;;;11.15;6.97;;;;;;;7.88;89.43;99085.78;5568701;31;33642;-55
2022/11/23 06:50:38;;;;;;;14.98;7.30;;;;;;;8.03;99.87;99091.94;5571770;31;32534;-54
2022/11/23 06:53:41;;;;;;;9.82;6.75;;;;;;;7.84;88.91;99082.09;5568386;31;33184;-56
2022/11/23 06:56:43;;;;;;;9.13;6.50;;;;;;;7.38;89.13;99079.41;5569419;31;34259;-54
2022/11/23 06:59:47;;;;;;;11.60;7.62;;;;;;;7.50;98.09;99079.75;5573881;31;33152;-55
2022/11/23 07:02:54;;;;;;;12.68;7.55;;;;;;;7.56;91.62;99085.81;5582793;31;33367;-55
2022/11/23 07:05:57;;;;;;;10.85;7.70;;;;;;;7.98;100.00;99096.28;5578230;31;33352;-55
2022/11/23 07:08:59;;;;;;;12.73;7.97;;;;;;;7.97;100.00;99092.00;5587856;31;34706;-55
2022/11/23 07:12:04;;;;;;;10.23;7.03;;;;;;;7.94;100.00;99097.94;5570077;31;34341;-55
2022/11/23 07:15:07;;;;;;;11.30;7.35;;;;;;;8.00;97.21;99102.09;5584329;31;33702;-56
2022/11/23 07:18:11;;;;;;;10.98;7.47;;;;;;;7.48;88.94;99101.37;5582153;31;33306;-55
2022/11/23 07:21:15;;;;;;;10.82;6.95;;;;;;;7.85;100.00;99097.06;5587355;31;34321;-55
2022/11/23 07:24:18;;;;;;;11.88;7.28;;;;;;;8.10;100.00;99095.78;5572914;31;33730;-56
2022/11/23 07:27:21;;;;;;;10.70;7.12;;;;;;;8.16;95.06;99088.50;5569596;31;32709;-55
2022/11/23 07:30:25;;;;;;;13.27;7.47;;;;;;;7.99;94.07;99089.06;5588466;31;33319;-55
2022/11/23 07:33:30;;;;;;;11.15;7.15;;;;;;;7.97;90.27;99085.87;5577051;31;33692;-55
2022/11/23 07:36:33;;;;;;;9.95;6.78;;;;;;;8.16;100.00;99091.16;5570728;31;34074;-54
2022/11/23 07:39:35;;;;;;;13.32;7.85;;;;;;;8.19;100.00;99101.25;5581623;31;33647;-55
2022/11/23 07:43:01;;;;;;;10.32;7.60;;;;;;;7.94;96.07;99097.94;5576800;31;34410;-56
2022/11/23 07:46:03;;;;;;;12.10;8.07;;;;;;;7.89;90.62;99099.91;5577081;31;34502;-55
2022/11/23 07:49:06;;;;;;;12.13;7.32;;;;;;;8.10;100.00;99113.69;5570366;31;34308;-55
2022/11/23 07:52:09;;;;;;;12.82;7.37;;;;;;;8.15;100.00;99102.94;5574574;31;33618;-56
2022/11/23 07:55:11;;;;;;;10.52;7.12;;;;;;;7.81;96.28;99104.03;5581210;31;34307;-55
2022/11/23 07:58:13;;;;;;;11.75;6.32;;;;;;;7.96;99.52;99109.13;5569444;31;33274;-55
2022/11/23 08:01:17;;;;;;;10.38;6.37;;;;;;;8.06;91.67;99110.81;5567936;32;34084;-56
2022/11/23 08:04:22;;;;;;;;;;;;;;;7.81;90.91;99105.91;5581317;31;33641;-55
2022/11/23 08:07:24;;;;;;;8.35;6.10;;;;;;;7.74;90.47;99115.09;5587198;31;33885;-55
2022/11/23 08:10:27;;;;;;;10.75;6.93;;;;;;;7.62;90.76;99108.66;5579024;31;34869;-55
2022/11/23 08:13:30;;;;;;;10.90;6.50;;;;;;;7.83;99.78;99117.87;5568481;31;33682;-56
2022/11/23 08:16:32;;;;;;;8.80;6.12;;;;;;;8.08;96.48;99108.66;5585324;31;33568;-55
2022/11/23 08:19:35;;;;;;;8.85;6.05;;;;;;;8.30;100.00;99115.97;5578373;31;33664;-55
2022/11/23 08:22:37;;;;;;;9.50;6.57;;;;;;;8.23;94.34;99115.59;5570778;31;34354;-55
2022/11/23 08:25:39;;;;;;;11.20;6.82;;;;;;;8.02;93.47;99117.06;5579274;31;34164;-55
2022/11/23 08:28:42;;;;;;;8.90;6.45;;;;;;;7.87;89.28;99121.53;5587262;31;32959;-55
2022/11/23 08:31:44;;;;;;;9.25;6.43;;;;;;;7.71;92.72;99123.66;5583612;31;33578;-55
2022/11/23 08:34:46;;;;;;;9.55;6.10;;;;;;;7.59;89.67;99122.56;5584296;31;33759;-55
2022/11/23 08:37:49;;;;;;;9.25;6.28;;;;;;;7.77;97.88;99125.16;5583862;31;33307;-55
2022/11/23 08:40:51;;;;;;;7.95;6.00;;;;;;;7.80;100.00;99117.69;5568473;32;35188;-55
2022/11/23 08:43:53;;;;;;;8.05;5.30;;;;;;;7.85;93.03;99120.28;5572301;31;34422;-55
2022/11/23 08:46:56;;;;;;;8.25;6.03;;;;;;;7.71;98.09;99112.22;5592635;31;33725;-55
2022/11/23 08:49:59;;;;;;;13.18;6.43;;;;;;;7.96;98.51;99119.00;5587165;31;34210;-55
2022/11/23 08:53:01;;;;;;;10.23;5.90;;;;;;;8.05;100.00;99127.94;5584477;31;34408;-55
2022/11/23 08:56:06;;;;;;;8.07;5.50;;;;;;;7.69;94.84;99128.53;5567965;32;33891;-55
2022/11/23 08:59:08;;;;;;;8.35;5.80;;;;;;;7.57;91.96;99130.84;5583194;31;33731;-55
2022/11/23 09:02:12;;;;;;;7.90;5.22;;;;;;;7.56;94.47;99133.81;5578697;31;33663;-55
2022/11/23 09:05:14;;;;;;;7.75;5.62;;;;;;;7.41;93.17;99132.94;5569709;31;33840;-55
2022/11/23 09:08:16;;;;;;;7.93;5.50;;;;;;;8.01;100.00;99132.25;5581732;31;33873;-55
2022/11/23 09:11:19;;;;;;;11.02;5.65;;;;;;;7.95;90.06;99131.56;5587075;31;33317;-56
2022/11/23 09:14:22;;;;;;;7.45;5.65;;;;;;;7.63;94.04;99140.34;5599320;31;34329;-55
2022/11/23 09:17:24;;;;;;;8.68;5.37;;;;;;;8.02;100.00;99139.19;5587236;31;34301;-55
2022/11/23 09:20:26;;;;;;;7.00;5.00;;;;;;;7.59;90.34;99154.56;5581603;31;33749;-55
2022/11/23 09:23:28;;;;;;;9.18;4.93;;;;;;;7.67;96.18;99148.56;5567349;32;34317;-55
2022/11/23 09:26:32;;;;;;;8.13;4.62;;;;;;;7.76;95.09;99147.59;5580665;31;33717;-56
2022/11/23 09:29:35;;;;;;;8.43;4.90;;;;;;;7.58;93.38;99136.97;5585759;31;32297;-55
2022/11/23 09:32:37;;;;;;;6.55;4.72;;;;;;;7.58;91.28;99145.75;5575382;31;33596;-55
2022/11/23 09:35:39;;;;;;;8.75;5.20;;;;;;;7.20;93.56;99143.09;5567090;32;34304;-55
2022/11/23 09:38:45;;;;;;;6.73;4.77;;;;;;;7.21;92.41;99141.22;5569911;31;34181;-55
2022/11/23 09:42:04;;;;;;;8.00;4.97;;;;;;;7.17;91.62;99146.34;5568559;31;33637;-55
2022/11/23 09:45:22;;;;;;;6.30;4.65;;;;;;;7.38;92.67;99138.84;5576370;31;33672;-55
2022/11/23 09:48:47;;;;;;;7.30;4.82;;;;;;;7.26;95.86;99135.84;5572618;31;33746;-55
2022/11/23 09:51:54;;;;;;;8.60;5.00;;;;;;;7.38;99.14;99148.72;5576923;31;33744;-55
2022/11/23 09:55:02;;;;;;;9.77;4.93;;;;;;;7.60;97.77;99140.13;5578612;31;34355;-55
2022/11/23 09:58:05;;;;;;;7.82;5.03;;;;;;;7.70;98.54;99146.09;5578989;31;34333;-55
2022/11/23 10:01:13;;;;;;;8.02;5.03;;;;;;;8.04;98.51;99137.00;5577887;31;33348;-55
2022/11/23 10:04:18;;;;;;;7.65;5.15;;;;;;;8.26;100.00;99140.91;5573160;31;33196;-55
2022/11/23 10:07:27;;;;;;;8.95;5.53;;;;;;;7.97;100.00;99133.94;5569731;32;33648;-55
2022/11/23 10:11:05;;;;;;;7.22;5.10;;;;;;;8.32;100.00;99132.50;5601343;31;35241;-55
2022/11/23 10:14:26;;;;;;;7.62;4.85;;;;;;;7.74;89.69;99122.31;5592959;31;34235;-55
2022/11/23 10:17:37;;;;;;;7.05;4.65;;;;;;;7.45;90.41;99131.28;5575662;31;33664;-55
2022/11/23 10:20:39;;;;;;;9.18;5.15;;;;;;;7.65;100.00;99132.84;5576592;31;36017;-56
2022/11/23 10:23:49;;;;;;;6.82;4.70;;;;;;;7.69;94.64;99131.19;5578979;31;32051;-55
2022/11/23 10:26:51;;;;;;;8.82;5.35;;;;;;;7.41;93.28;99126.81;5587934;31;33352;-56
2022/11/23 10:29:55;;;;;;;7.15;5.45;;;;;;;7.68;100.00;99123.47;5576510;31;33699;-55
2022/11/23 10:33:08;;;;;;;7.32;5.12;;;;;;;7.98;100.00;99125.63;5581046;31;34476;-55
2022/11/23 10:36:12;;;;;;;7.68;4.60;;;;;;;8.13;98.25;99123.78;5570169;31;33741;-55
2022/11/23 10:39:25;;;;;;;7.45;4.80;;;;;;;7.79;90.69;99119.56;5572004;31;34344;-55
2022/11/23 10:42:43;;;;;;;7.93;4.85;;;;;;;7.90;91.67;99126.28;5588205;31;34415;-55
2022/11/23 10:45:47;;;;;;;6.47;4.40;;;;;;;8.00;100.00;99131.47;5588401;31;33219;-55
2022/11/23 10:48:51;;;;;;;10.52;5.62;;;;;;;8.23;99.87;99134.28;5569416;31;33018;-56
2022/11/23 10:52:24;;;;;;;6.85;4.68;;;;;;;8.39;100.00;99130.28;5569059;32;34366;-55
2022/11/23 10:55:29;;;;;;;6.62;4.40;;;;;;;8.71;100.00;99131.28;5568420;32;33775;-55
2022/11/23 10:58:43;;;;;;;7.97;4.95;;;;;;;8.53;98.85;99124.94;5585706;31;33774;-55
2022/11/23 11:01:58;;;;;;;9.40;4.97;;;;;;;8.70;100.00;99118.97;5588552;31;34460;-55
2022/11/23 11:05:31;;;;;;;7.85;5.35;;;;;;;8.64;100.00;99112.97;5587971;31;33375;-55
2022/11/23 11:08:56;;;;;;;7.47;4.93;;;;;;;8.69;100.00;99114.75;5569436;31;34445;-55
2022/11/23 11:12:04;;;;;;;7.25;5.10;;;;;;;8.34;94.45;99111.63;5569670;31;33803;-55
2022/11/23 11:15:09;;;;;;;6.80;4.62;;;;;;;8.44;100.00;99108.81;5572380;31;33727;-55
2022/11/23 11:18:17;;;;;;;7.35;5.28;;;;;;;8.11;90.34;99113.41;5586689;31;32866;-55
2022/11/23 11:21:34;;;;;;;7.72;4.95;;;;;;;8.05;90.92;99109.25;5585563;31;33747;-55
2022/11/23 11:24:45;;;;;;;7.05;4.72;;;;;;;8.26;92.05;99106.19;5588295;31;34378;-55
2022/11/23 11:27:51;;;;;;;6.65;4.85;;;;;;;8.03;90.61;99105.28;5571292;31;33679;-55
2022/11/23 11:31:14;;;;;;;7.37;4.75;;;;;;;7.79;91.33;99111.56;5581638;31;33204;-55
2022/11/23 11:34:25;;;;;;;8.20;5.40;;;;;;;7.73;96.91;99107.38;5587696;31;34072;-55
2022/11/23 11:37:41;;;;;;;8.75;5.32;;;;;;;7.69;94.61;99109.06;5583674;31;33813;-55
2022/11/23 11:40:51;;;;;;;8.45;5.50;;;;;;;7.73;92.98;99115.38;5587195;31;34464;-54
2022/11/23 11:44:12;;;;;;;7.60;5.65;;;;;;;7.81;95.39;99122.72;5586011;31;33820;-55
2022/11/23 11:47:36;;;;;;;7.53;5.25;;;;;;;8.44;100.00;99121.34;5574813;31;33671;-54
2022/11/23 11:50:55;;;;;;;8.05;5.03;;;;;;;8.66;100.00;99124.13;5568453;32;33622;-55
2022/11/23 11:54:16;;;;;;;7.10;5.03;;;;;;;8.30;88.63;99128.53;5575698;31;34517;-55
2022/11/23 11:57:22;;;;;;;9.77;5.15;;;;;;;7.96;88.78;99119.00;5588194;31;33663;-55
2022/11/23 12:00:26;;;;;;;7.18;4.47;;;;;;;7.97;94.02;99118.69;5587836;31;33698;-56
2022/11/23 12:03:38;;;;;;;6.75;5.05;;;;;;;8.03;100.00;99118.63;5588237;31;33254;-55
2022/11/23 12:06:50;;;;;;;8.40;5.07;;;;;;;8.04;93.13;99125.53;5587786;31;34301;-55
2022/11/23 12:10:00;;;;;;;6.57;4.65;;;;;;;8.21;93.98;99123.91;5572649;31;33829;-55
2022/11/23 12:13:02;;;;;;;8.77;5.30;;;;;;;8.08;90.72;99113.19;5571490;31;34326;-56
2022/11/23 12:16:19;;;;;;;9.13;4.90;;;;;;;7.98;91.77;99119.50;5599119;31;33823;-55
2022/11/23 12:19:29;;;;;;;6.87;4.50;;;;;;;7.77;90.04;99117.16;5580967;31;33764;-55
2022/11/23 12:23:14;;;;;;;7.87;5.07;;;;;;;7.66;90.59;99115.75;5586956;31;34463;-55
2022/11/23 12:26:44;;;;;;;8.50;4.85;;;;;;;7.57;90.92;99120.16;5585602;31;34321;-55
2022/11/23 12:29:58;;;;;;;7.43;5.30;;;;;;;7.73;90.97;99120.72;5598926;31;33328;-55
2022/11/23 12:33:19;;;;;;;6.78;4.95;;;;;;;7.87;100.00;99126.88;5597293;31;34322;-54
2022/11/23 12:36:40;;;;;;;8.38;4.55;;;;;;;8.59;100.00;99121.06;5587429;31;34441;-55
2022/11/23 12:40:13;;;;;;;8.48;4.82;;;;;;;8.41;92.39;99105.94;5587781;31;33768;-54
2022/11/23 12:43:25;;;;;;;6.78;4.80;;;;;;;8.21;92.97;99112.41;5576027;31;33685;-55
2022/11/23 12:46:50;;;;;;;6.80;4.57;;;;;;;8.61;96.71;99102.06;5567834;32;33773;-55
2022/11/23 12:50:15;;;;;;;5.72;4.25;;;;;;;8.26;93.40;99098.19;5567695;32;34352;-55
2022/11/23 12:53:49;;;;;;;6.47;4.45;;;;;;;8.46;97.81;99111.97;5582316;31;33919;-55
2022/11/23 12:57:23;;;;;;;8.90;4.53;;;;;;;8.61;98.47;99118.09;5574340;31;33728;-55
2022/11/23 13:00:30;;;;;;;6.87;4.37;;;;;;;8.54;87.92;99115.03;5564117;31;33843;-55
2022/11/23 13:03:38;;;;;;;6.55;4.37;;;;;;;8.58;98.33;99116.03;5574437;31;33610;-55
2022/11/23 13:07:18;;;;;;;7.40;4.57;;;;;;;8.24;88.11;99107.28;5573143;31;33603;-55
2022/11/23 13:10:45;;;;;;;5.93;4.47;;;;;;;8.33;87.92;99118.06;5587569;31;34863;-55
2022/11/23 13:14:05;;;;;;;8.02;5.00;;;;;;;8.19;88.71;99125.28;5587478;31;33355;-55
2022/11/23 13:17:43;;;;;;;6.87;4.47;;;;;;;8.31;98.12;99119.44;5586772;31;34715;-55
2022/11/23 13:21:03;;;;;;;5.40;4.55;;;;;;;8.38;93.21;99127.91;5553243;31;33295;-55
2022/11/23 13:24:30;;;;;;;6.95;4.53;;;;;;;8.56;98.99;99126.22;5588075;31;33612;-55
2022/11/23 13:27:48;;;;;;;5.03;3.97;;;;;;;8.52;92.88;99138.59;5595332;31;33770;-55
2022/11/23 13:31:18;;;;;;;6.62;4.65;;;;;;;8.21;89.66;99133.75;5594284;31;35002;-55
2022/11/23 13:34:43;;;;;;;7.20;4.68;;;;;;;8.12;100.00;99135.56;5599491;31;34339;-56
2022/11/23 13:37:55;;;;;;;7.43;4.60;;;;;;;8.47;93.49;99144.81;5599448;31;34323;-55
2022/11/23 13:40:57;;;;;;;6.40;4.20;;;;;;;8.32;93.17;99134.41;5598083;31;33816;-55
2022/11/23 13:44:20;;;;;;;6.43;4.35;;;;;;;8.70;96.14;99133.13;5608807;31;33640;-55
2022/11/23 13:47:22;;;;;;;7.80;4.65;;;;;;;8.61;92.23;99134.13;5607629;31;33691;-55
2022/11/23 13:50:25;;;;;;;8.30;4.28;;;;;;;8.54;95.67;99136.41;5608852;31;34336;-55
2022/11/23 13:53:38;;;;;;;7.40;4.90;;;;;;;8.82;97.45;99137.19;5608870;31;33653;-55
2022/11/23 13:56:42;;;;;;;6.40;4.45;;;;;;;8.90;99.73;99141.81;5608920;31;33794;-55
2022/11/23 13:59:45;;;;;;;6.68;4.70;;;;;;;9.24;100.00;99145.91;5609248;31;33860;-55
2022/11/23 14:02:47;;;;;;;6.68;4.70;;;;;;;8.87;86.64;99137.06;5608977;31;33690;-55
2022/11/23 14:05:50;;;;;;;6.32;4.55;;;;;;;8.63;83.78;99139.97;5609105;31;34062;-55
2022/11/23 14:09:01;;;;;;;5.95;4.20;;;;;;;8.69;96.35;99136.91;5609012;31;34428;-54
2022/11/23 14:12:13;;;;;;;6.55;4.50;;;;;;;8.55;96.66;99130.78;5609125;31;33619;-55
2022/11/23 14:15:21;;;;;;;7.25;4.60;;;;;;;8.44;84.27;99143.53;5608785;31;33590;-55
2022/11/23 14:18:33;;;;;;;7.53;4.50;;;;;;;8.48;86.44;99143.75;5608569;31;33716;-55
2022/11/23 14:22:17;;;;;;;7.10;4.80;;;;;;;8.69;87.57;99144.12;5609394;31;33370;-55
2022/11/23 14:25:47;;;;;;;6.57;4.87;;;;;;;8.69;87.13;99144.91;5587647;31;33845;-55
2022/11/23 14:29:08;;;;;;;9.45;4.87;;;;;;;8.74;99.67;99146.72;5608925;31;33856;-55
2022/11/23 14:32:31;;;;;;;5.82;4.40;;;;;;;8.34;84.32;99142.88;5609023;31;34431;-55
2022/11/23 14:36:10;;;;;;;6.70;4.65;;;;;;;8.51;93.67;99145.00;5607690;31;33745;-55
2022/11/23 14:39:35;;;;;;;7.85;4.30;;;;;;;8.59;85.49;99152.34;5608127;31;33164;-55
2022/11/23 14:42:42;;;;;;;6.37;4.43;;;;;;;8.57;92.87;99154.50;5608696;31;33839;-55
2022/11/23 14:45:46;;;;;;;6.80;4.62;;;;;;;8.50;90.50;99159.44;5608628;31;33596;-55
2022/11/23 14:48:48;;;;;;;8.23;4.25;;;;;;;8.85;96.40;99157.97;5608657;31;34345;-55
2022/11/23 14:51:51;;;;;;;7.25;4.97;;;;;;;9.15;96.93;99161.91;5608888;31;34385;-55
2022/11/23 14:54:59;;;;;;;8.30;4.40;;;;;;;8.92;96.26;99164.50;5608281;31;33271;-54
2022/11/23 14:58:04;;;;;;;7.87;5.10;;;;;;;8.90;86.72;99166.66;5608499;31;34368;-55
2022/11/23 15:01:15;;;;;;;7.65;5.20;;;;;;;8.65;83.98;99164.53;5608259;31;33333;-55
2022/11/23 15:04:32;;;;;;;7.32;4.87;;;;;;;8.60;89.23;99175.28;5608472;31;34344;-55
2022/11/23 15:07:48;;;;;;;8.40;5.28;;;;;;;8.47;90.14;99177.63;5608213;31;34212;-55
2022/11/23 15:11:05;;;;;;;9.48;4.75;;;;;;;8.76;91.62;99179.25;5608984;31;33650;-55
2022/11/23 15:14:19;;;;;;;6.72;4.37;;;;;;;8.64;86.53;99181.62;5608460;31;34248;-55
2022/11/23 15:17:22;;;;;;;8.35;4.82;;;;;;;8.81;94.51;99187.19;5608798;31;33665;-55
2022/11/23 15:20:43;;;;;;;8.32;4.30;;;;;;;8.86;95.56;99179.03;5608711;31;33860;-55
2022/11/23 15:23:49;;;;;;;8.25;4.62;;;;;;;8.99;88.92;99174.78;5595459;31;33672;-55
2022/11/23 15:26:54;;;;;;;8.18;4.95;;;;;;;8.96;96.93;99169.25;5588062;31;33733;-55
2022/11/23 15:29:58;;;;;;;6.68;5.07;;;;;;;8.96;91.97;99174.59;5587708;31;33737;-56
2022/11/23 15:33:08;;;;;;;8.23;5.50;;;;;;;8.60;84.67;99177.97;5588372;31;33651;-55
2022/11/23 15:36:10;;;;;;;7.55;5.55;;;;;;;8.88;97.81;99182.22;5589109;31;33763;-55
2022/11/23 15:39:17;;;;;;;7.87;4.93;;;;;;;9.16;96.71;99180.31;5589029;31;33735;-55
2022/11/23 15:42:23;;;;;;;7.45;5.00;;;;;;;9.13;100.00;99182.78;5588807;31;33739;-55
2022/11/23 15:45:40;;;;;;;10.38;5.55;;;;;;;9.21;95.28;99181.31;5588154;31;33761;-55
2022/11/23 15:48:48;;;;;;;7.05;4.95;;;;;;;9.02;90.56;99184.09;5588452;31;34448;-55
2022/11/23 15:51:53;;;;;;;8.38;5.30;;;;;;;8.88;84.31;99179.56;5588946;31;33714;-55
2022/11/23 15:54:57;;;;;;;7.55;5.15;;;;;;;8.51;84.92;99193.06;5588794;31;33642;-55
2022/11/23 15:58:06;;;;;;;6.95;5.28;;;;;;;8.41;86.59;99188.72;5588669;31;33668;-55
2022/11/23 16:01:12;;;;;;;7.62;5.40;;;;;;;8.33;87.78;99192.03;5588646;31;33958;-55
2022/11/23 16:04:26;;;;;;;7.25;5.20;;;;;;;8.50;87.52;99202.19;5588850;31;33709;-56
2022/11/23 16:07:28;;;;;;;7.25;5.37;;;;;;;8.36;91.21;99204.81;5589074;31;34327;-55
2022/11/23 16:10:33;;;;;;;10.95;6.30;;;;;;;8.22;89.89;99210.13;5588658;31;33578;-56
2022/11/23 16:13:37;;;;;;;8.23;5.37;;;;;;;8.23;87.71;99211.69;5588710;31;33836;-55
2022/11/23 16:16:41;;;;;;;7.87;5.62;;;;;;;8.20;86.38;99214.94;5588846;31;34361;-55
2022/11/23 16:19:49;;;;;;;8.45;5.72;;;;;;;8.18;91.55;99219.81;5588864;31;34261;-55
2022/11/23 16:22:52;;;;;;;8.43;6.00;;;;;;;8.22;85.96;99226.13;5588816;31;33757;-55
2022/11/23 16:26:03;;;;;;;8.85;7.12;;;;;;;8.13;86.08;99223.34;5588871;31;33830;-55
2022/11/23 16:29:05;;;;;;;9.57;6.72;;;;;;;8.24;86.33;99226.63;5588661;31;33718;-55
2022/11/23 16:32:36;;;;;;;10.10;6.43;;;;;;;8.13;92.29;99230.56;5588688;31;32462;-55
2022/11/23 16:35:39;;;;;;;9.23;6.75;;;;;;;7.85;95.73;99233.13;5575496;31;34231;-55
2022/11/23 16:38:41;;;;;;;10.73;6.78;;;;;;;7.99;89.79;99235.84;5588425;31;33744;-55
2022/11/23 16:41:43;;;;;;;11.07;7.32;;;;;;;7.98;88.23;99237.72;5588383;31;33802;-55
2022/11/23 16:44:46;;;;;;;11.70;7.37;;;;;;;8.13;89.27;99233.22;5588191;31;33635;-55
2022/11/23 16:47:53;;;;;;;10.63;6.60;;;;;;;8.24;92.29;99226.63;5588376;31;34323;-55
